Time;durP1;ratioP1;P1;durP2;ratioP2;P2;SDS_P1;SDS_P2;PMS_P1;PMS_P2;Temp;Humidity;BMP_temperature;BMP_pressure;BME280_temperature;BME280_humidity;BME280_pressure;Samples;Min_cycle;Max_cycle;Signal;HPM_P1;HPM_P2
2022/11/08 00:01:31;;;;;;;27.48;11.68;;;;;;;7.52;69.62;99727.78;10295229;28;20897;-62
2022/11/08 00:17:16;;;;;;;20.47;10.60;;;;;;;7.37;69.78;99718.97;10292514;28;20275;-62
2022/11/08 00:22:18;;;;;;;14.38;9.90;;;;;;;7.40;69.59;99716.25;10282577;28;20050;-63
2022/11/08 00:27:22;;;;;;;21.00;11.95;;;;;;;7.38;69.54;99715.47;10287167;28;20295;-62
2022/11/08 00:32:25;;;;;;;20.02;12.10;;;;;;;7.39;69.62;99717.13;10307440;28;20423;-63
2022/11/08 00:37:27;;;;;;;32.05;11.52;;;;;;;7.41;69.56;99714.44;10296529;28;20054;-62
2022/11/08 00:42:28;;;;;;;240.88;23.00;;;;;;;7.47;69.55;99715.00;10279487;28;20050;-62
2022/11/08 00:47:30;;;;;;;472.80;30.45;;;;;;;7.37;69.59;99724.19;10287127;28;20531;-63
2022/11/08 00:52:32;;;;;;;410.48;24.00;;;;;;;7.31;69.83;99714.09;10286454;28;20057;-62
2022/11/08 00:57:33;;;;;;;313.13;20.48;;;;;;;7.27;69.84;99711.69;10293586;28;20055;-62
2022/11/08 01:08:16;;;;;;;184.40;19.00;;;;;;;7.29;69.90;99713.31;10277285;28;20046;-62
2022/11/08 01:13:18;;;;;;;135.00;15.50;;;;;;;7.32;70.03;99707.13;10280554;28;20046;-62
2022/11/08 01:18:20;;;;;;;130.38;14.45;;;;;;;7.34;69.81;99702.69;10272782;28;20043;-63
2022/11/08 01:23:22;;;;;;;151.52;17.35;;;;;;;7.45;69.86;99703.00;10278231;28;20054;-62
2022/11/08 01:28:24;;;;;;;150.70;15.90;;;;;;;7.54;69.52;99705.97;10284252;28;20054;-62
2022/11/08 01:33:28;;;;;;;239.90;23.73;;;;;;;7.58;69.41;99706.66;10278587;28;20061;-62
2022/11/08 01:38:30;;;;;;;450.83;33.25;;;;;;;7.49;69.26;99705.34;10276979;28;20950;-62
2022/11/08 01:43:57;;;;;;;239.75;15.23;;;;;;;7.48;69.45;99700.22;10279495;28;20051;-62
2022/11/08 01:49:36;;;;;;;94.65;12.10;;;;;;;7.55;69.43;99697.22;10281772;28;20407;-62
2022/11/08 01:54:53;;;;;;;291.95;26.50;;;;;;;7.60;69.41;99694.41;10281907;28;20050;-62
2022/11/08 01:59:57;;;;;;;293.15;23.98;;;;;;;7.51;69.46;99695.69;10295570;28;20046;-62
2022/11/08 02:05:01;;;;;;;398.80;26.83;;;;;;;7.54;69.58;99685.16;10278635;28;20077;-62
2022/11/08 02:10:03;;;;;;;198.73;21.58;;;;;;;7.58;69.22;99672.81;10273305;28;20046;-63
2022/11/08 02:15:05;;;;;;;267.75;22.17;;;;;;;7.60;69.39;99673.56;10290408;28;20054;-62
2022/11/08 02:20:08;;;;;;;210.70;22.13;;;;;;;7.60;69.31;99670.97;10291364;28;20053;-62
2022/11/08 02:25:09;;;;;;;124.18;17.75;;;;;;;7.57;69.18;99669.38;10271804;28;20055;-62
2022/11/08 02:30:11;;;;;;;173.52;25.10;;;;;;;7.48;69.12;99664.66;10278756;28;20446;-63
2022/11/08 02:35:17;;;;;;;294.95;34.33;;;;;;;7.47;68.97;99649.13;10285158;28;20713;-62
2022/11/08 02:40:19;;;;;;;184.52;24.95;;;;;;;7.33;69.22;99655.00;10279204;28;20054;-61
2022/11/08 02:45:20;;;;;;;120.10;11.18;;;;;;;7.24;69.46;99646.84;10282049;28;20503;-62
2022/11/08 02:50:22;;;;;;;173.73;18.48;;;;;;;7.28;69.50;99638.81;10282026;28;20057;-62
2022/11/08 02:55:24;;;;;;;124.93;20.35;;;;;;;7.34;69.48;99640.25;10288182;28;20050;-62
2022/11/08 03:00:26;;;;;;;141.50;23.52;;;;;;;7.37;69.16;99627.91;10271210;28;20046;-62
2022/11/08 03:05:28;;;;;;;131.57;19.20;;;;;;;7.37;69.31;99627.06;10286060;28;20070;-62
2022/11/08 03:10:30;;;;;;;303.75;19.15;;;;;;;7.39;69.48;99618.28;10292423;28;20042;-61
2022/11/08 03:15:32;;;;;;;431.35;27.25;;;;;;;7.41;69.47;99613.00;10296798;28;20227;-62
2022/11/08 03:20:33;;;;;;;422.73;27.40;;;;;;;7.48;69.79;99615.22;10277868;28;20412;-62
2022/11/08 03:25:35;;;;;;;282.00;19.58;;;;;;;7.63;69.57;99611.78;10288773;28;20330;-61
2022/11/08 03:30:37;;;;;;;361.15;26.08;;;;;;;7.56;69.69;99602.63;10279359;28;20431;-62
2022/11/08 03:35:39;;;;;;;350.70;22.88;;;;;;;7.50;69.79;99583.91;10294760;28;20058;-62
2022/11/08 03:40:41;;;;;;;299.35;23.20;;;;;;;7.58;69.84;99603.41;10288815;28;20046;-62
2022/11/08 03:45:44;;;;;;;351.58;20.02;;;;;;;7.45;69.82;99602.34;10284690;28;20603;-62
2022/11/08 03:50:46;;;;;;;285.67;19.00;;;;;;;7.43;69.85;99591.19;10282726;28;20043;-61
2022/11/08 03:55:47;;;;;;;553.75;23.17;;;;;;;7.39;70.01;99586.22;10288284;28;20242;-61
2022/11/08 04:00:49;;;;;;;591.90;34.33;;;;;;;7.33;69.94;99578.72;10289187;28;20050;-62
2022/11/08 04:05:51;;;;;;;518.45;33.78;;;;;;;7.19;70.04;99584.66;10280531;28;20047;-61
2022/11/08 04:10:54;;;;;;;439.05;25.73;;;;;;;7.25;70.33;99581.75;10273829;28;20043;-61
2022/11/08 04:15:56;;;;;;;556.75;32.35;;;;;;;7.28;70.05;99560.78;10264899;28;20069;-62
2022/11/08 04:21:18;;;;;;;511.83;28.48;;;;;;;7.31;70.15;99554.56;10282317;28;20039;-62
2022/11/08 04:26:20;;;;;;;381.52;15.20;;;;;;;7.26;70.04;99560.03;10287292;28;20069;-62
2022/11/08 04:31:22;;;;;;;466.15;21.15;;;;;;;7.25;69.98;99541.88;10283978;28;20396;-62
2022/11/08 04:36:23;;;;;;;680.95;34.40;;;;;;;7.19;69.83;99545.66;10298494;28;20050;-62
2022/11/08 04:41:25;;;;;;;261.42;12.25;;;;;;;7.22;69.93;99542.91;10279021;28;20051;-62
2022/11/08 04:46:28;;;;;;;272.17;18.67;;;;;;;7.22;70.01;99545.50;10271694;28;20073;-62
2022/11/08 04:51:32;;;;;;;265.73;18.23;;;;;;;7.38;69.67;99545.53;10281220;28;20491;-63
2022/11/08 04:56:33;;;;;;;563.33;32.00;;;;;;;7.36;69.41;99534.38;10283837;28;20060;-62
2022/11/08 05:01:35;;;;;;;514.25;28.88;;;;;;;7.17;69.52;99518.88;10287824;28;20054;-63
2022/11/08 05:06:37;;;;;;;610.30;25.45;;;;;;;6.83;69.79;99513.75;10275389;28;20047;-63
2022/11/08 05:11:39;;;;;;;342.52;18.60;;;;;;;6.84;70.33;99495.47;10279119;28;20055;-62
2022/11/08 05:16:40;;;;;;;335.67;15.80;;;;;;;6.83;69.97;99505.94;10269791;28;20077;-62
2022/11/08 05:27:02;;;;;;;364.50;18.95;;;;;;;6.73;70.20;99507.34;10274748;28;20051;-63
2022/11/08 05:32:04;;;;;;;454.05;23.88;;;;;;;6.79;70.06;99510.47;10290307;28;20415;-61
2022/11/08 05:37:06;;;;;;;515.47;26.17;;;;;;;6.94;70.07;99506.22;10281980;28;20190;-62
2022/11/08 05:42:07;;;;;;;760.45;31.17;;;;;;;6.88;69.69;99496.13;10288340;28;20140;-62
2022/11/08 05:47:09;;;;;;;230.55;15.18;;;;;;;6.90;70.03;99505.53;10280014;28;20544;-61
2022/11/08 05:52:11;;;;;;;897.60;35.03;;;;;;;6.87;69.79;99504.88;10281371;28;20587;-62
2022/11/08 05:57:12;;;;;;;645.92;28.83;;;;;;;6.91;69.96;99499.44;10282107;28;20058;-62
2022/11/08 06:02:16;;;;;;;282.10;17.20;;;;;;;6.99;69.71;99497.28;10278546;28;20050;-62
2022/11/08 06:07:18;;;;;;;485.55;34.20;;;;;;;6.97;69.53;99485.28;10283914;28;20046;-63
2022/11/08 06:12:20;;;;;;;623.42;21.38;;;;;;;6.70;69.59;99478.91;10283820;28;20189;-63
2022/11/08 06:17:22;;;;;;;551.00;24.17;;;;;;;6.50;70.02;99477.31;10282785;28;20054;-62
2022/11/08 06:22:31;;;;;;;807.17;27.90;;;;;;;6.48;70.00;99466.16;10283189;28;20057;-63
2022/11/08 06:27:33;;;;;;;335.48;16.30;;;;;;;6.48;69.71;99444.53;10284319;28;20483;-63
2022/11/08 06:32:34;;;;;;;687.17;30.50;;;;;;;6.11;70.07;99454.13;10279253;28;20051;-62
2022/11/08 06:37:36;;;;;;;419.92;16.75;;;;;;;5.94;70.41;99455.88;10276251;28;20050;-62
2022/11/08 06:42:37;;;;;;;792.33;39.70;;;;;;;5.82;70.38;99467.66;10280677;28;20054;-63
2022/11/08 06:47:39;;;;;;;351.33;15.98;;;;;;;5.63;70.46;99463.44;10294819;28;20046;-62
2022/11/08 06:52:41;;;;;;;715.70;27.70;;;;;;;5.63;70.68;99472.06;10270380;28;20057;-62
2022/11/08 06:57:42;;;;;;;573.00;27.13;;;;;;;5.90;70.65;99478.53;10282151;28;20062;-63
2022/11/08 07:02:44;;;;;;;526.92;31.98;;;;;;;6.12;70.18;99476.56;10269989;28;20054;-62
2022/11/08 07:07:50;;;;;;;515.35;27.13;;;;;;;6.22;69.54;99474.38;10280664;28;20414;-63
2022/11/08 07:13:04;;;;;;;356.48;20.55;;;;;;;6.38;69.84;99469.28;10267913;28;20046;-62
2022/11/08 07:18:11;;;;;;;478.70;18.83;;;;;;;6.48;69.16;99475.72;10271125;28;20422;-62
2022/11/08 07:23:13;;;;;;;578.75;28.00;;;;;;;6.51;68.97;99480.75;10284274;28;20507;-63
2022/11/08 07:28:17;;;;;;;351.02;20.85;;;;;;;6.69;69.41;99477.22;10279249;28;20065;-63
2022/11/08 07:33:19;;;;;;;322.88;14.45;;;;;;;6.87;69.04;99479.72;10276790;28;20073;-63
2022/11/08 07:38:21;;;;;;;607.40;28.33;;;;;;;6.83;68.76;99477.34;10268306;28;20056;-62
2022/11/08 07:43:24;;;;;;;105.75;8.80;;;;;;;6.75;69.17;99485.56;10278740;28;20047;-62
2022/11/08 07:48:28;;;;;;;452.98;22.35;;;;;;;6.87;69.09;99492.72;10267554;28;20526;-63
2022/11/08 07:53:30;;;;;;;617.17;23.55;;;;;;;6.91;68.71;99485.59;10282369;28;20073;-62
2022/11/08 07:58:33;;;;;;;247.52;15.73;;;;;;;6.84;68.88;99494.63;10286190;28;20055;-63
2022/11/08 08:03:34;;;;;;;855.35;33.25;;;;;;;6.93;68.67;99499.34;10282925;28;20055;-62
2022/11/08 08:08:36;;;;;;;619.88;33.17;;;;;;;7.21;68.59;99489.19;10271896;28;20414;-62
2022/11/08 08:13:38;;;;;;;364.58;20.42;;;;;;;7.26;68.18;99491.56;10273556;28;20047;-63
2022/11/08 08:18:39;;;;;;;586.33;23.10;;;;;;;6.93;68.94;99486.34;10284198;28;20058;-62
2022/11/08 08:23:41;;;;;;;368.52;19.58;;;;;;;6.94;68.76;99501.03;10271022;28;20039;-62
2022/11/08 08:28:43;;;;;;;145.43;13.98;;;;;;;7.02;68.88;99504.09;10280472;28;20051;-62
2022/11/08 08:33:45;;;;;;;23.95;13.48;;;;;;;7.40;68.56;99494.25;10270991;28;20051;-63
2022/11/08 08:38:46;;;;;;;91.32;22.20;;;;;;;7.72;68.45;99493.34;10274134;28;20062;-63
2022/11/08 08:43:48;;;;;;;17.10;12.10;;;;;;;8.06;68.34;99500.94;10272980;28;20069;-63
2022/11/08 08:48:49;;;;;;;73.28;17.42;;;;;;;8.13;68.42;99491.06;10285707;28;20050;-62
2022/11/08 08:53:51;;;;;;;25.35;14.93;;;;;;;8.28;68.12;99477.19;10285169;28;20055;-62
2022/11/08 08:58:53;;;;;;;14.40;10.65;;;;;;;8.49;68.31;99478.53;10283225;28;20863;-63
2022/11/08 09:04:15;;;;;;;12.88;9.55;;;;;;;8.70;67.95;99469.44;10269234;28;20574;-62
2022/11/08 09:09:17;;;;;;;17.25;11.02;;;;;;;8.78;68.23;99464.63;10278578;28;20523;-62
2022/11/08 09:14:18;;;;;;;18.63;10.70;;;;;;;9.02;68.26;99468.34;10274653;28;20051;-63
2022/11/08 09:19:20;;;;;;;22.13;15.07;;;;;;;9.15;68.13;99458.03;10275379;28;20046;-63
2022/11/08 09:24:22;;;;;;;13.98;10.85;;;;;;;9.40;68.21;99458.19;10278504;28;20066;-63
2022/11/08 09:29:24;;;;;;;21.55;13.90;;;;;;;9.53;68.21;99466.91;10270582;28;20046;-63
2022/11/08 09:34:26;;;;;;;19.17;11.02;;;;;;;9.60;67.89;99457.78;10278199;28;20042;-63
2022/11/08 09:39:28;;;;;;;17.90;10.88;;;;;;;9.59;67.93;99449.09;10268852;28;20073;-63
2022/11/08 09:44:57;;;;;;;15.10;10.85;;;;;;;9.59;67.97;99438.66;10290350;28;20311;-63
2022/11/08 09:50:14;;;;;;;15.52;11.10;;;;;;;9.61;68.23;99449.00;10266769;28;20553;-63
2022/11/08 09:55:28;;;;;;;19.40;11.85;;;;;;;9.74;68.49;99451.69;10274068;28;20073;-62
2022/11/08 10:00:33;;;;;;;15.32;10.20;;;;;;;9.73;68.60;99442.22;10274342;28;20119;-62
2022/11/08 10:05:41;;;;;;;15.52;10.80;;;;;;;9.77;68.84;99435.84;10300972;28;20058;-64
2022/11/08 10:11:01;;;;;;;15.40;9.35;;;;;;;9.81;69.00;99438.13;10273728;28;20046;-65
2022/11/08 10:16:29;;;;;;;14.77;9.13;;;;;;;10.01;69.40;99449.94;10268107;28;20047;-65
2022/11/08 10:21:46;;;;;;;10.13;7.28;;;;;;;10.40;68.45;99462.97;10276871;28;20050;-65
2022/11/08 10:26:49;;;;;;;14.85;7.30;;;;;;;10.93;68.13;99451.53;10272132;28;20487;-65
2022/11/08 10:32:14;;;;;;;14.65;5.38;;;;;;;11.34;67.25;99448.69;10266390;28;20566;-65
2022/11/08 10:37:17;;;;;;;7.93;3.70;;;;;;;11.63;66.17;99442.19;10282123;28;20050;-65
2022/11/08 10:42:32;;;;;;;10.07;5.18;;;;;;;12.05;65.99;99439.94;10278627;28;20046;-65
2022/11/08 10:47:35;;;;;;;13.45;6.97;;;;;;;12.11;65.17;99439.47;10279190;28;20054;-63
2022/11/08 10:52:43;;;;;;;8.10;4.20;;;;;;;12.29;63.53;99442.56;10262557;28;20047;-63
2022/11/08 10:57:45;;;;;;;10.93;4.55;;;;;;;12.52;63.32;99438.19;10276663;28;20055;-64
2022/11/08 11:02:50;;;;;;;6.28;2.55;;;;;;;12.56;62.05;99424.75;10263916;28;21578;-64
2022/11/08 11:07:52;;;;;;;10.07;3.65;;;;;;;12.67;61.60;99422.16;10273339;28;20042;-64
2022/11/08 11:13:05;;;;;;;9.65;2.00;;;;;;;12.72;60.29;99422.63;10273945;28;20054;-64
2022/11/08 11:18:38;;;;;;;5.65;2.13;;;;;;;12.90;59.04;99421.19;10262187;28;20338;-64
2022/11/08 11:23:47;;;;;;;6.10;2.28;;;;;;;13.10;59.04;99408.34;10264142;28;20478;-64
2022/11/08 11:29:04;;;;;;;6.78;2.22;;;;;;;13.24;58.52;99403.69;10263822;28;20499;-65
2022/11/08 11:34:18;;;;;;;4.28;1.80;;;;;;;13.32;57.67;99401.28;10265933;28;20125;-65
2022/11/08 11:39:38;;;;;;;6.05;2.10;;;;;;;13.41;56.15;99389.22;10261262;28;20059;-65
2022/11/08 11:45:04;;;;;;;4.83;1.83;;;;;;;13.47;56.11;99375.63;10266162;28;20058;-64
2022/11/08 11:50:31;;;;;;;6.30;2.10;;;;;;;13.51;55.19;99392.81;10260530;28;20415;-64
2022/11/08 11:56:05;;;;;;;3.97;1.92;;;;;;;13.66;55.73;99392.38;10268745;28;20049;-65
2022/11/08 12:01:26;;;;;;;3.63;1.77;;;;;;;13.85;53.39;99378.59;10260756;28;20438;-65
2022/11/08 12:06:35;;;;;;;5.20;2.10;;;;;;;13.95;54.27;99382.13;10263868;28;20066;-65
2022/11/08 12:12:02;;;;;;;6.35;2.90;;;;;;;13.88;55.67;99385.41;10260349;28;20051;-65
2022/11/08 12:17:33;;;;;;;6.45;2.53;;;;;;;13.71;54.46;99384.13;10259837;28;20051;-66
2022/11/08 12:22:51;;;;;;;7.80;3.40;;;;;;;13.89;56.16;99372.13;10270306;28;20051;-64
2022/11/08 12:28:05;;;;;;;4.82;2.20;;;;;;;13.89;52.66;99381.78;10264489;28;20472;-65
2022/11/08 12:33:41;;;;;;;6.03;3.00;;;;;;;13.91;51.67;99366.72;10261831;28;20051;-64
2022/11/08 12:39:21;;;;;;;5.40;2.58;;;;;;;14.05;52.94;99353.28;10264968;28;20404;-64
2022/11/08 12:44:43;;;;;;;;;;;;;;;13.95;52.74;99337.44;10280355;28;20138;-64
2022/11/08 12:49:45;;;;;;;4.53;2.00;;;;;;;14.35;53.40;99327.88;10271375;28;19932;-64
2022/11/08 12:54:53;;;;;;;5.80;1.90;;;;;;;14.65;51.97;99321.84;10275672;28;20771;-64
2022/11/08 13:00:07;;;;;;;3.90;1.85;;;;;;;14.50;49.51;99313.47;10285806;28;20053;-64
2022/11/08 13:05:23;;;;;;;5.32;2.00;;;;;;;14.61;51.30;99322.22;10267523;28;20051;-65
2022/11/08 13:10:56;;;;;;;4.70;1.90;;;;;;;14.71;51.11;99310.78;10268189;28;20587;-65
2022/11/08 13:16:16;;;;;;;4.43;2.00;;;;;;;14.53;50.25;99313.19;10285188;28;20069;-66
2022/11/08 13:21:27;;;;;;;6.43;1.90;;;;;;;14.53;51.42;99302.66;10272327;28;20497;-64
2022/11/08 13:26:31;;;;;;;3.33;1.80;;;;;;;14.48;52.39;99304.00;10294624;28;20065;-65
2022/11/08 13:31:55;;;;;;;5.68;2.10;;;;;;;14.48;52.38;99302.19;10280792;28;20494;-65
2022/11/08 13:37:25;;;;;;;8.00;1.80;;;;;;;14.40;53.10;99303.81;10287674;28;20059;-64
2022/11/08 13:42:53;;;;;;;5.03;1.80;;;;;;;14.25;51.22;99307.72;10266333;28;20055;-65
2022/11/08 13:48:01;;;;;;;4.50;2.15;;;;;;;14.32;53.56;99296.59;10297631;28;20065;-64
2022/11/08 13:53:05;;;;;;;4.53;1.73;;;;;;;14.20;53.61;99300.25;10277659;28;20051;-64
2022/11/08 13:58:39;;;;;;;5.10;1.90;;;;;;;14.00;53.50;99301.09;10286915;28;20071;-64
2022/11/08 14:03:41;;;;;;;6.28;1.90;;;;;;;14.06;53.17;99303.22;10282795;28;20053;-64
2022/11/08 14:08:57;;;;;;;4.00;1.58;;;;;;;14.04;52.72;99299.88;10266329;28;20457;-64
2022/11/08 14:14:11;;;;;;;5.25;1.83;;;;;;;14.01;53.16;99309.81;10271670;28;20062;-64
2022/11/08 14:19:34;;;;;;;4.80;2.63;;;;;;;13.97;53.50;99311.84;10286314;28;20494;-64
2022/11/08 14:24:37;;;;;;;5.97;2.28;;;;;;;13.82;53.97;99302.59;10270416;28;20542;-64
2022/11/08 14:29:38;;;;;;;5.75;2.40;;;;;;;13.58;54.68;99304.63;10269322;28;20419;-64
2022/11/08 14:34:40;;;;;;;7.63;2.60;;;;;;;13.49;54.88;99300.16;10267604;28;20061;-63
2022/11/08 14:39:45;;;;;;;7.30;2.83;;;;;;;13.39;55.25;99293.94;10262064;28;20571;-64
2022/11/08 14:44:50;;;;;;;4.45;2.40;;;;;;;13.32;55.81;99292.75;10286272;28;20050;-63
2022/11/08 14:49:52;;;;;;;8.50;2.45;;;;;;;13.13;56.38;99280.28;10279156;28;20046;-64
2022/11/08 14:55:06;;;;;;;10.63;2.80;;;;;;;13.04;57.58;99277.56;10264076;28;20046;-64
2022/11/08 15:00:25;;;;;;;11.25;3.20;;;;;;;12.96;57.25;99286.06;10275655;28;20506;-63
2022/11/08 15:05:39;;;;;;;7.75;3.22;;;;;;;12.91;58.16;99281.16;10272319;28;20101;-63
2022/11/08 15:10:55;;;;;;;7.20;3.05;;;;;;;12.73;57.88;99290.50;10267240;28;20400;-63
2022/11/08 15:16:03;;;;;;;6.63;3.03;;;;;;;12.87;57.64;99297.28;10278845;28;20053;-63
2022/11/08 15:21:16;;;;;;;6.32;3.50;;;;;;;12.85;57.75;99292.16;10288082;28;20403;-63
2022/11/08 15:26:23;;;;;;;6.78;3.25;;;;;;;12.86;57.91;99291.19;10272262;28;20061;-63
2022/11/08 15:31:29;;;;;;;6.95;3.15;;;;;;;12.74;58.41;99294.78;10268552;28;21396;-64
2022/11/08 15:36:33;;;;;;;8.80;3.30;;;;;;;12.70;58.90;99295.97;10272518;28;20047;-64
2022/11/08 15:41:39;;;;;;;8.00;3.45;;;;;;;12.65;58.92;99297.28;10264471;28;20054;-63
2022/11/08 15:46:41;;;;;;;7.00;3.17;;;;;;;12.53;59.68;99293.84;10273723;28;20050;-63
2022/11/08 15:51:43;;;;;;;14.52;6.47;;;;;;;12.48;59.76;99282.84;10295340;28;20055;-64
2022/11/08 15:56:46;;;;;;;15.02;8.57;;;;;;;12.42;59.86;99293.81;10287591;28;20093;-64
2022/11/08 16:01:55;;;;;;;12.68;6.88;;;;;;;12.29;59.95;99287.88;10274832;28;20051;-63
2022/11/08 16:06:57;;;;;;;10.35;5.10;;;;;;;12.12;60.30;99288.28;10271585;28;20070;-64
2022/11/08 16:12:01;;;;;;;11.05;4.30;;;;;;;12.07;60.58;99279.94;10263072;28;20179;-63
2022/11/08 16:17:03;;;;;;;8.20;4.38;;;;;;;11.95;61.04;99280.84;10275193;28;20062;-64
2022/11/08 16:22:06;;;;;;;10.18;4.15;;;;;;;11.88;61.22;99274.44;10280827;28;20089;-62
2022/11/08 16:27:08;;;;;;;9.50;3.92;;;;;;;11.74;61.57;99272.84;10286123;28;20051;-62
2022/11/08 16:32:10;;;;;;;10.77;3.58;;;;;;;11.64;62.40;99266.59;10271750;28;20333;-61
2022/11/08 16:37:11;;;;;;;10.23;4.20;;;;;;;11.52;62.26;99253.59;10282790;28;20522;-61
2022/11/08 16:42:13;;;;;;;12.13;4.20;;;;;;;11.47;62.54;99253.94;10308829;28;20057;-62
2022/11/08 16:47:17;;;;;;;8.80;4.50;;;;;;;11.40;62.87;99268.41;10285647;28;20055;-63
2022/11/08 16:52:19;;;;;;;9.63;4.38;;;;;;;11.39;63.18;99268.53;10304171;28;20054;-63
2022/11/08 16:57:20;;;;;;;8.40;4.15;;;;;;;11.42;62.86;99269.13;10283081;28;20050;-63
2022/11/08 17:02:39;;;;;;;9.60;4.78;;;;;;;11.46;62.90;99277.63;10274108;28;20407;-63
2022/11/08 17:07:41;;;;;;;9.85;5.80;;;;;;;11.42;63.08;99273.56;10294941;28;20054;-62
2022/11/08 17:12:43;;;;;;;10.77;5.47;;;;;;;11.27;63.73;99273.72;10290715;28;20051;-63
2022/11/08 17:17:45;;;;;;;12.25;5.70;;;;;;;11.20;64.00;99276.91;10282869;28;20054;-62
2022/11/08 17:22:48;;;;;;;11.93;5.45;;;;;;;11.07;64.24;99271.72;10283609;28;20055;-63
2022/11/08 17:27:51;;;;;;;9.68;4.57;;;;;;;11.08;64.15;99273.41;10270720;28;20382;-62
2022/11/08 17:32:53;;;;;;;9.60;5.00;;;;;;;11.19;63.90;99277.84;10268533;28;20240;-62
2022/11/08 17:37:55;;;;;;;13.73;7.30;;;;;;;11.16;64.13;99278.06;10276660;28;20064;-62
2022/11/08 17:42:56;;;;;;;12.63;8.00;;;;;;;11.10;64.44;99281.13;10268895;28;20047;-61
2022/11/08 17:47:58;;;;;;;10.65;7.00;;;;;;;10.94;64.64;99286.59;10284497;28;20431;-62
2022/11/08 17:52:59;;;;;;;12.07;6.68;;;;;;;10.87;64.84;99290.59;10269392;28;20050;-62
2022/11/08 17:58:01;;;;;;;10.73;4.35;;;;;;;10.92;64.75;99285.88;10282083;28;20518;-62
2022/11/08 18:03:04;;;;;;;10.07;4.88;;;;;;;10.96;64.70;99289.94;10279027;28;20057;-62
2022/11/08 18:08:12;;;;;;;8.23;4.38;;;;;;;10.90;64.79;99300.84;10270912;28;20175;-62
2022/11/08 18:13:14;;;;;;;8.93;4.18;;;;;;;10.83;64.76;99293.50;10271007;28;20069;-62
2022/11/08 18:18:16;;;;;;;7.93;4.10;;;;;;;10.80;64.93;99294.59;10286832;28;20129;-62
2022/11/08 18:23:18;;;;;;;8.73;4.00;;;;;;;10.85;64.82;99289.84;10271406;28;20167;-62
2022/11/08 18:28:21;;;;;;;9.48;3.90;;;;;;;11.00;64.58;99286.16;10277081;28;20544;-62
2022/11/08 18:33:23;;;;;;;8.25;4.30;;;;;;;11.03;64.37;99270.22;10268835;28;20061;-62
2022/11/08 18:38:25;;;;;;;10.57;4.57;;;;;;;11.03;64.58;99259.75;10267480;28;20059;-62
2022/11/08 18:43:28;;;;;;;9.90;4.50;;;;;;;10.98;64.52;99261.03;10263236;28;20050;-62
2022/11/08 18:48:34;;;;;;;8.25;4.50;;;;;;;10.85;65.13;99271.53;10278638;28;20054;-62
2022/11/08 18:53:36;;;;;;;9.88;4.68;;;;;;;10.71;65.55;99274.31;10261883;28;20469;-62
2022/11/08 18:58:38;;;;;;;9.23;4.35;;;;;;;10.69;65.38;99257.88;10264559;28;20057;-62
2022/11/08 19:03:40;;;;;;;9.77;4.75;;;;;;;10.67;65.26;99258.94;10263456;28;20047;-62
2022/11/08 19:08:42;;;;;;;8.98;4.47;;;;;;;10.68;65.66;99255.38;10266054;28;20150;-63
2022/11/08 19:13:44;;;;;;;7.20;4.65;;;;;;;10.64;65.57;99260.00;10270831;28;20050;-62
2022/11/08 19:18:48;;;;;;;12.48;5.55;;;;;;;10.68;65.70;99244.94;10267285;28;20057;-62
2022/11/08 19:23:50;;;;;;;12.27;6.25;;;;;;;10.77;65.51;99258.19;10263795;28;20065;-62
2022/11/08 19:28:56;;;;;;;18.58;12.68;;;;;;;10.85;65.52;99255.00;10262684;28;20046;-62
2022/11/08 19:33:57;;;;;;;16.35;8.65;;;;;;;10.89;65.38;99267.75;10269617;28;20047;-62
2022/11/08 19:38:59;;;;;;;10.73;6.95;;;;;;;10.89;65.39;99267.75;10270571;28;20054;-62
2022/11/08 19:44:02;;;;;;;13.18;7.43;;;;;;;10.93;65.33;99274.44;10268060;28;20050;-62
2022/11/08 19:49:04;;;;;;;11.68;6.97;;;;;;;10.99;65.30;99279.25;10272204;28;20058;-61
2022/11/08 19:54:10;;;;;;;12.65;6.70;;;;;;;11.09;64.96;99279.47;10279632;28;20059;-62
2022/11/08 19:59:11;;;;;;;13.32;7.15;;;;;;;11.11;64.71;99291.47;10274680;28;20050;-62
2022/11/08 20:04:17;;;;;;;14.05;7.25;;;;;;;11.13;64.76;99296.63;10274061;28;20514;-63
2022/11/08 20:09:19;;;;;;;12.57;6.75;;;;;;;11.03;65.06;99298.19;10276780;28;20572;-61
2022/11/08 20:14:22;;;;;;;18.02;8.73;;;;;;;11.03;64.93;99306.03;10274360;28;20054;-61
2022/11/08 20:19:24;;;;;;;16.50;6.55;;;;;;;10.91;65.40;99312.97;10291504;28;20160;-62
2022/11/08 20:24:25;;;;;;;12.27;6.47;;;;;;;10.93;65.55;99316.31;10271313;28;20050;-61
2022/11/08 20:29:27;;;;;;;11.35;7.22;;;;;;;10.98;65.29;99311.59;10277760;28;20061;-63
2022/11/08 20:34:28;;;;;;;10.20;6.60;;;;;;;11.00;65.41;99311.47;10285271;28;20804;-61
2022/11/08 20:39:30;;;;;;;15.63;11.25;;;;;;;10.96;65.69;99316.09;10276262;28;20061;-62
2022/11/08 20:44:32;;;;;;;14.63;9.18;;;;;;;10.95;65.44;99311.81;10276667;28;20371;-61
2022/11/08 20:49:34;;;;;;;15.40;10.80;;;;;;;10.94;65.14;99307.53;10288856;28;20490;-62
2022/11/08 20:54:36;;;;;;;15.70;9.02;;;;;;;10.80;65.69;99299.81;10273030;28;20065;-62
2022/11/08 20:59:44;;;;;;;16.85;8.35;;;;;;;10.82;65.60;99312.78;10289277;28;20057;-62
2022/11/08 21:04:46;;;;;;;16.80;8.93;;;;;;;10.90;65.67;99331.41;10289068;28;20062;-62
2022/11/08 21:09:48;;;;;;;15.65;9.80;;;;;;;10.84;65.98;99335.28;10286971;28;20047;-62
2022/11/08 21:14:56;;;;;;;18.60;9.70;;;;;;;10.74;66.00;99336.03;10275793;28;20043;-62
2022/11/08 21:19:57;;;;;;;17.83;9.15;;;;;;;10.68;66.18;99347.75;10271749;28;20082;-62
2022/11/08 21:24:59;;;;;;;13.32;7.28;;;;;;;10.64;66.66;99343.69;10271194;28;20402;-62
2022/11/08 21:30:01;;;;;;;10.93;5.30;;;;;;;10.90;67.03;99327.00;10284088;28;20046;-62
2022/11/08 21:35:02;;;;;;;8.55;3.75;;;;;;;11.36;66.46;99314.09;10288529;28;20046;-62
2022/11/08 21:40:05;;;;;;;5.32;3.28;;;;;;;11.69;65.92;99302.94;10289847;28;20070;-61
2022/11/08 21:45:07;;;;;;;8.43;3.15;;;;;;;11.88;66.08;99300.63;10281668;28;20406;-61
2022/11/08 21:50:09;;;;;;;6.68;3.28;;;;;;;12.01;65.78;99307.44;10295889;28;20486;-61
2022/11/08 21:55:11;;;;;;;6.15;2.75;;;;;;;12.14;65.81;99302.94;10282584;28;20467;-61
2022/11/08 22:00:13;;;;;;;14.38;8.98;;;;;;;11.97;65.20;99298.13;10285261;28;20047;-61
2022/11/08 22:05:15;;;;;;;15.20;9.23;;;;;;;11.42;66.03;99297.94;10273679;28;20523;-61
2022/11/08 22:10:17;;;;;;;13.18;8.20;;;;;;;11.46;66.04;99324.75;10278685;28;20058;-61
2022/11/08 22:15:18;;;;;;;11.68;5.78;;;;;;;11.33;66.75;99303.88;10288810;28;20522;-61
2022/11/08 22:20:20;;;;;;;11.55;6.68;;;;;;;11.42;66.30;99310.22;10277734;28;20062;-61
2022/11/08 22:25:22;;;;;;;11.40;6.70;;;;;;;11.47;66.19;99313.31;10274662;28;20403;-61
2022/11/08 22:30:23;;;;;;;15.57;7.97;;;;;;;11.38;66.68;99317.44;10275531;28;20743;-62
2022/11/08 22:35:25;;;;;;;15.55;9.10;;;;;;;11.12;66.85;99332.41;10268676;28;20055;-62
2022/11/08 22:40:27;;;;;;;15.55;7.78;;;;;;;11.18;66.83;99339.81;10276362;28;20046;-62
2022/11/08 22:45:28;;;;;;;15.02;8.02;;;;;;;11.19;66.42;99338.06;10284377;28;20381;-62
2022/11/08 22:50:30;;;;;;;14.20;7.32;;;;;;;11.13;66.94;99318.38;10278740;28;20074;-62
2022/11/08 22:55:32;;;;;;;14.02;7.18;;;;;;;11.17;66.63;99322.44;10281313;28;20047;-62
2022/11/08 23:00:33;;;;;;;11.88;6.57;;;;;;;11.27;66.61;99326.06;10281482;28;20043;-62
2022/11/08 23:05:35;;;;;;;12.50;6.75;;;;;;;11.35;66.70;99316.84;10274127;28;20396;-62
2022/11/08 23:16:30;;;;;;;14.93;6.97;;;;;;;11.37;66.76;99307.09;10282221;28;20050;-61
2022/11/08 23:32:10;;;;;;;12.33;6.90;;;;;;;11.16;67.01;99289.38;10282553;28;20050;-62
2022/11/08 23:37:12;;;;;;;11.23;6.60;;;;;;;11.25;66.78;99280.84;10283944;28;20490;-62
2022/11/08 23:47:33;;;;;;;12.15;6.32;;;;;;;11.22;67.29;99265.38;10278806;28;20047;-61
2022/11/08 23:52:35;;;;;;;16.92;6.55;;;;;;;11.27;67.24;99258.00;10275669;28;20054;-62
2022/11/08 23:57:37;;;;;;;9.43;5.05;;;;;;;11.24;67.32;99263.47;10270909;28;20751;-61
